sensor_id;sensor_type;location;lat;lon;timestamp;P1;durP1;ratioP1;P2;durP2;ratioP2
142;SDS011;63667;49.046;8.468;2023-03-15T00:00:38;7.70;;;3.80;;
142;SDS011;63667;49.046;8.468;2023-03-15T00:03:07;8.13;;;3.13;;
142;SDS011;63667;49.046;8.468;2023-03-15T00:05:33;12.93;;;3.80;;
142;SDS011;63667;49.046;8.468;2023-03-15T00:08:00;6.80;;;3.30;;
142;SDS011;63667;49.046;8.468;2023-03-15T00:10:27;6.40;;;3.40;;
142;SDS011;63667;49.046;8.468;2023-03-15T00:12:53;6.27;;;3.57;;
142;SDS011;63667;49.046;8.468;2023-03-15T00:15:20;7.50;;;3.80;;
142;SDS011;63667;49.046;8.468;2023-03-15T00:17:46;9.57;;;4.23;;
142;SDS011;63667;49.046;8.468;2023-03-15T00:20:13;7.33;;;3.50;;
142;SDS011;63667;49.046;8.468;2023-03-15T00:22:40;12.07;;;4.03;;
142;SDS011;63667;49.046;8.468;2023-03-15T00:25:06;14.23;;;4.50;;
142;SDS011;63667;49.046;8.468;2023-03-15T00:27:33;17.10;;;4.33;;
142;SDS011;63667;49.046;8.468;2023-03-15T00:29:59;12.00;;;4.20;;
142;SDS011;63667;49.046;8.468;2023-03-15T00:32:26;9.70;;;4.60;;
142;SDS011;63667;49.046;8.468;2023-03-15T00:34:52;13.20;;;4.10;;
142;SDS011;63667;49.046;8.468;2023-03-15T00:37:19;9.20;;;3.87;;
142;SDS011;63667;49.046;8.468;2023-03-15T00:39:46;9.17;;;4.27;;
142;SDS011;63667;49.046;8.468;2023-03-15T00:42:13;13.30;;;4.37;;
142;SDS011;63667;49.046;8.468;2023-03-15T00:44:40;15.33;;;4.07;;
142;SDS011;63667;49.046;8.468;2023-03-15T00:47:10;6.40;;;3.87;;
142;SDS011;63667;49.046;8.468;2023-03-15T00:49:37;9.17;;;4.33;;
142;SDS011;63667;49.046;8.468;2023-03-15T00:52:04;11.80;;;4.80;;
142;SDS011;63667;49.046;8.468;2023-03-15T00:54:31;7.77;;;4.27;;
142;SDS011;63667;49.046;8.468;2023-03-15T00:57:00;12.77;;;4.50;;
142;SDS011;63667;49.046;8.468;2023-03-15T00:59:27;10.37;;;4.40;;
142;SDS011;63667;49.046;8.468;2023-03-15T01:02:02;10.47;;;4.77;;
142;SDS011;63667;49.046;8.468;2023-03-15T01:04:29;10.03;;;4.80;;
142;SDS011;63667;49.046;8.468;2023-03-15T01:06:56;17.10;;;4.87;;
142;SDS011;63667;49.046;8.468;2023-03-15T01:09:22;16.40;;;4.57;;
142;SDS011;63667;49.046;8.468;2023-03-15T01:11:49;12.90;;;4.60;;
142;SDS011;63667;49.046;8.468;2023-03-15T01:14:16;11.40;;;4.80;;
142;SDS011;63667;49.046;8.468;2023-03-15T01:16:43;10.50;;;4.37;;
142;SDS011;63667;49.046;8.468;2023-03-15T01:19:13;13.13;;;4.77;;
142;SDS011;63667;49.046;8.468;2023-03-15T01:21:40;10.07;;;4.73;;
142;SDS011;63667;49.046;8.468;2023-03-15T01:24:10;5.70;;;3.93;;
142;SDS011;63667;49.046;8.468;2023-03-15T01:26:37;10.97;;;4.10;;
142;SDS011;63667;49.046;8.468;2023-03-15T01:29:04;10.93;;;4.60;;
142;SDS011;63667;49.046;8.468;2023-03-15T01:31:30;7.43;;;4.17;;
142;SDS011;63667;49.046;8.468;2023-03-15T01:33:57;9.63;;;4.20;;
142;SDS011;63667;49.046;8.468;2023-03-15T01:36:25;11.10;;;4.10;;
142;SDS011;63667;49.046;8.468;2023-03-15T01:38:51;11.93;;;4.47;;
142;SDS011;63667;49.046;8.468;2023-03-15T01:41:19;9.27;;;4.03;;
142;SDS011;63667;49.046;8.468;2023-03-15T01:43:45;6.03;;;3.37;;
142;SDS011;63667;49.046;8.468;2023-03-15T01:48:40;7.27;;;3.77;;
142;SDS011;63667;49.046;8.468;2023-03-15T01:53:39;11.50;;;3.80;;
142;SDS011;63667;49.046;8.468;2023-03-15T01:56:06;6.90;;;3.80;;
142;SDS011;63667;49.046;8.468;2023-03-15T01:58:33;8.33;;;4.10;;
142;SDS011;63667;49.046;8.468;2023-03-15T02:01:01;6.00;;;3.83;;
142;SDS011;63667;49.046;8.468;2023-03-15T02:03:34;7.90;;;4.23;;
142;SDS011;63667;49.046;8.468;2023-03-15T02:06:05;10.70;;;4.23;;
142;SDS011;63667;49.046;8.468;2023-03-15T02:08:38;12.60;;;4.10;;
142;SDS011;63667;49.046;8.468;2023-03-15T02:11:08;7.47;;;4.27;;
142;SDS011;63667;49.046;8.468;2023-03-15T02:13:36;8.47;;;4.17;;
142;SDS011;63667;49.046;8.468;2023-03-15T02:16:02;10.27;;;4.37;;
142;SDS011;63667;49.046;8.468;2023-03-15T02:18:31;11.93;;;4.63;;
142;SDS011;63667;49.046;8.468;2023-03-15T02:21:08;10.20;;;4.60;;
142;SDS011;63667;49.046;8.468;2023-03-15T02:23:47;8.63;;;3.90;;
142;SDS011;63667;49.046;8.468;2023-03-15T02:28:57;7.10;;;3.97;;
142;SDS011;63667;49.046;8.468;2023-03-15T02:31:23;9.30;;;4.40;;
142;SDS011;63667;49.046;8.468;2023-03-15T02:33:50;11.63;;;4.40;;
142;SDS011;63667;49.046;8.468;2023-03-15T02:36:21;6.43;;;3.93;;
142;SDS011;63667;49.046;8.468;2023-03-15T02:38:50;11.47;;;5.20;;
142;SDS011;63667;49.046;8.468;2023-03-15T02:41:18;10.57;;;4.00;;
142;SDS011;63667;49.046;8.468;2023-03-15T02:44:00;10.43;;;4.47;;
142;SDS011;63667;49.046;8.468;2023-03-15T02:46:31;8.80;;;4.17;;
142;SDS011;63667;49.046;8.468;2023-03-15T02:48:57;8.30;;;4.33;;
142;SDS011;63667;49.046;8.468;2023-03-15T02:51:26;8.80;;;4.70;;
142;SDS011;63667;49.046;8.468;2023-03-15T02:53:53;7.33;;;4.33;;
142;SDS011;63667;49.046;8.468;2023-03-15T02:56:20;11.30;;;4.73;;
142;SDS011;63667;49.046;8.468;2023-03-15T02:58:46;11.67;;;5.03;;
142;SDS011;63667;49.046;8.468;2023-03-15T03:01:13;10.93;;;4.67;;
142;SDS011;63667;49.046;8.468;2023-03-15T03:03:40;9.83;;;4.73;;
142;SDS011;63667;49.046;8.468;2023-03-15T03:06:08;12.90;;;4.40;;
142;SDS011;63667;49.046;8.468;2023-03-15T03:08:35;7.93;;;4.20;;
142;SDS011;63667;49.046;8.468;2023-03-15T03:11:01;6.03;;;4.20;;
142;SDS011;63667;49.046;8.468;2023-03-15T03:13:28;16.13;;;5.00;;
142;SDS011;63667;49.046;8.468;2023-03-15T03:15:54;11.50;;;5.00;;
142;SDS011;63667;49.046;8.468;2023-03-15T03:18:23;11.53;;;5.67;;
142;SDS011;63667;49.046;8.468;2023-03-15T03:20:50;8.53;;;4.70;;
142;SDS011;63667;49.046;8.468;2023-03-15T03:23:19;10.57;;;5.90;;
142;SDS011;63667;49.046;8.468;2023-03-15T03:25:45;10.53;;;4.93;;
142;SDS011;63667;49.046;8.468;2023-03-15T03:28:11;12.57;;;4.67;;
142;SDS011;63667;49.046;8.468;2023-03-15T03:30:38;9.60;;;5.10;;
142;SDS011;63667;49.046;8.468;2023-03-15T03:33:04;15.13;;;4.97;;
142;SDS011;63667;49.046;8.468;2023-03-15T03:35:30;11.80;;;5.50;;
142;SDS011;63667;49.046;8.468;2023-03-15T03:37:57;8.63;;;5.00;;
142;SDS011;63667;49.046;8.468;2023-03-15T03:40:23;16.30;;;5.87;;
142;SDS011;63667;49.046;8.468;2023-03-15T03:42:49;9.93;;;4.83;;
142;SDS011;63667;49.046;8.468;2023-03-15T03:45:16;17.13;;;5.80;;
142;SDS011;63667;49.046;8.468;2023-03-15T03:47:42;15.57;;;5.47;;
142;SDS011;63667;49.046;8.468;2023-03-15T03:50:09;11.87;;;5.13;;
142;SDS011;63667;49.046;8.468;2023-03-15T03:52:36;11.30;;;5.40;;
142;SDS011;63667;49.046;8.468;2023-03-15T03:55:02;11.10;;;5.07;;
142;SDS011;63667;49.046;8.468;2023-03-15T03:57:28;11.20;;;5.23;;
142;SDS011;63667;49.046;8.468;2023-03-15T03:59:54;11.77;;;5.93;;
142;SDS011;63667;49.046;8.468;2023-03-15T04:02:23;13.93;;;5.33;;
142;SDS011;63667;49.046;8.468;2023-03-15T04:04:49;13.77;;;5.00;;
142;SDS011;63667;49.046;8.468;2023-03-15T04:07:15;14.37;;;5.70;;
142;SDS011;63667;49.046;8.468;2023-03-15T04:09:41;12.10;;;5.00;;
142;SDS011;63667;49.046;8.468;2023-03-15T04:12:07;19.17;;;5.47;;
142;SDS011;63667;49.046;8.468;2023-03-15T04:14:34;11.83;;;5.50;;
142;SDS011;63667;49.046;8.468;2023-03-15T04:17:00;18.13;;;5.70;;
142;SDS011;63667;49.046;8.468;2023-03-15T04:19:28;18.30;;;5.33;;
142;SDS011;63667;49.046;8.468;2023-03-15T04:21:55;21.40;;;6.47;;
142;SDS011;63667;49.046;8.468;2023-03-15T04:24:21;12.93;;;5.80;;
142;SDS011;63667;49.046;8.468;2023-03-15T04:26:47;10.73;;;5.17;;
142;SDS011;63667;49.046;8.468;2023-03-15T04:29:13;11.60;;;5.43;;
142;SDS011;63667;49.046;8.468;2023-03-15T04:31:40;13.90;;;5.50;;
142;SDS011;63667;49.046;8.468;2023-03-15T04:34:07;16.40;;;6.00;;
142;SDS011;63667;49.046;8.468;2023-03-15T04:36:33;13.30;;;5.60;;
142;SDS011;63667;49.046;8.468;2023-03-15T04:39:00;15.07;;;5.67;;
142;SDS011;63667;49.046;8.468;2023-03-15T04:41:31;9.43;;;5.37;;
142;SDS011;63667;49.046;8.468;2023-03-15T04:44:02;18.13;;;6.40;;
142;SDS011;63667;49.046;8.468;2023-03-15T04:46:29;11.43;;;5.90;;
142;SDS011;63667;49.046;8.468;2023-03-15T04:48:56;13.50;;;5.60;;
142;SDS011;63667;49.046;8.468;2023-03-15T04:51:23;15.37;;;6.80;;
142;SDS011;63667;49.046;8.468;2023-03-15T04:53:49;20.13;;;5.80;;
142;SDS011;63667;49.046;8.468;2023-03-15T04:56:15;17.00;;;6.83;;
142;SDS011;63667;49.046;8.468;2023-03-15T04:58:41;15.30;;;6.00;;
142;SDS011;63667;49.046;8.468;2023-03-15T05:01:07;14.23;;;5.90;;
142;SDS011;63667;49.046;8.468;2023-03-15T05:03:33;21.70;;;5.90;;
142;SDS011;63667;49.046;8.468;2023-03-15T05:06:00;14.60;;;6.07;;
142;SDS011;63667;49.046;8.468;2023-03-15T05:08:33;19.80;;;7.77;;
142;SDS011;63667;49.046;8.468;2023-03-15T05:11:01;11.50;;;5.20;;
142;SDS011;63667;49.046;8.468;2023-03-15T05:13:28;16.13;;;6.90;;
142;SDS011;63667;49.046;8.468;2023-03-15T05:15:54;18.10;;;6.03;;
142;SDS011;63667;49.046;8.468;2023-03-15T05:18:21;17.40;;;5.80;;
142;SDS011;63667;49.046;8.468;2023-03-15T05:20:48;15.53;;;5.43;;
142;SDS011;63667;49.046;8.468;2023-03-15T05:23:14;15.63;;;5.50;;
142;SDS011;63667;49.046;8.468;2023-03-15T05:25:41;12.13;;;5.63;;
142;SDS011;63667;49.046;8.468;2023-03-15T05:28:07;29.43;;;6.47;;
142;SDS011;63667;49.046;8.468;2023-03-15T05:30:33;16.23;;;5.50;;
142;SDS011;63667;49.046;8.468;2023-03-15T05:33:00;13.70;;;5.63;;
142;SDS011;63667;49.046;8.468;2023-03-15T05:35:29;8.90;;;5.20;;
142;SDS011;63667;49.046;8.468;2023-03-15T05:37:55;11.30;;;5.37;;
142;SDS011;63667;49.046;8.468;2023-03-15T05:40:22;14.23;;;6.20;;
142;SDS011;63667;49.046;8.468;2023-03-15T05:42:48;13.53;;;5.60;;
142;SDS011;63667;49.046;8.468;2023-03-15T05:45:14;11.00;;;6.03;;
142;SDS011;63667;49.046;8.468;2023-03-15T05:47:40;18.93;;;6.77;;
142;SDS011;63667;49.046;8.468;2023-03-15T05:50:07;14.40;;;5.97;;
142;SDS011;63667;49.046;8.468;2023-03-15T05:52:34;14.50;;;6.20;;
142;SDS011;63667;49.046;8.468;2023-03-15T05:55:00;20.73;;;6.37;;
142;SDS011;63667;49.046;8.468;2023-03-15T05:57:26;24.37;;;7.30;;
142;SDS011;63667;49.046;8.468;2023-03-15T05:59:52;14.07;;;6.40;;
142;SDS011;63667;49.046;8.468;2023-03-15T06:02:18;15.00;;;6.03;;
142;SDS011;63667;49.046;8.468;2023-03-15T06:04:45;12.10;;;5.20;;
142;SDS011;63667;49.046;8.468;2023-03-15T06:07:12;14.57;;;6.70;;
142;SDS011;63667;49.046;8.468;2023-03-15T06:09:38;18.33;;;6.50;;
142;SDS011;63667;49.046;8.468;2023-03-15T06:12:04;16.00;;;6.93;;
142;SDS011;63667;49.046;8.468;2023-03-15T06:14:30;14.33;;;7.07;;
142;SDS011;63667;49.046;8.468;2023-03-15T06:16:56;18.00;;;5.97;;
142;SDS011;63667;49.046;8.468;2023-03-15T06:19:23;19.00;;;7.13;;
142;SDS011;63667;49.046;8.468;2023-03-15T06:21:49;16.60;;;6.83;;
142;SDS011;63667;49.046;8.468;2023-03-15T06:24:15;13.97;;;6.67;;
142;SDS011;63667;49.046;8.468;2023-03-15T06:26:42;16.80;;;7.57;;
142;SDS011;63667;49.046;8.468;2023-03-15T06:29:08;16.90;;;6.80;;
142;SDS011;63667;49.046;8.468;2023-03-15T06:31:34;21.47;;;6.53;;
142;SDS011;63667;49.046;8.468;2023-03-15T06:34:00;17.53;;;6.63;;
142;SDS011;63667;49.046;8.468;2023-03-15T06:36:26;13.77;;;6.30;;
142;SDS011;63667;49.046;8.468;2023-03-15T06:38:52;14.57;;;6.67;;
142;SDS011;63667;49.046;8.468;2023-03-15T06:41:19;12.70;;;6.00;;
142;SDS011;63667;49.046;8.468;2023-03-15T06:43:45;17.67;;;7.57;;
142;SDS011;63667;49.046;8.468;2023-03-15T06:46:12;19.00;;;7.67;;
142;SDS011;63667;49.046;8.468;2023-03-15T06:48:38;19.90;;;7.57;;
142;SDS011;63667;49.046;8.468;2023-03-15T06:51:04;15.10;;;7.03;;
142;SDS011;63667;49.046;8.468;2023-03-15T06:53:31;17.53;;;6.70;;
142;SDS011;63667;49.046;8.468;2023-03-15T06:55:57;11.40;;;6.33;;
142;SDS011;63667;49.046;8.468;2023-03-15T06:58:23;11.23;;;6.27;;
142;SDS011;63667;49.046;8.468;2023-03-15T07:00:49;9.67;;;5.40;;
142;SDS011;63667;49.046;8.468;2023-03-15T07:03:15;11.20;;;6.20;;
142;SDS011;63667;49.046;8.468;2023-03-15T07:05:43;20.40;;;5.77;;
142;SDS011;63667;49.046;8.468;2023-03-15T07:08:10;11.83;;;5.20;;
142;SDS011;63667;49.046;8.468;2023-03-15T07:10:37;13.17;;;5.40;;
142;SDS011;63667;49.046;8.468;2023-03-15T07:13:03;16.20;;;5.83;;
142;SDS011;63667;49.046;8.468;2023-03-15T07:15:31;19.93;;;6.47;;
142;SDS011;63667;49.046;8.468;2023-03-15T07:17:57;12.40;;;5.70;;
142;SDS011;63667;49.046;8.468;2023-03-15T07:20:23;14.10;;;6.63;;
142;SDS011;63667;49.046;8.468;2023-03-15T07:22:49;14.50;;;7.63;;
142;SDS011;63667;49.046;8.468;2023-03-15T07:25:16;13.37;;;6.40;;
142;SDS011;63667;49.046;8.468;2023-03-15T07:27:51;15.63;;;7.20;;
142;SDS011;63667;49.046;8.468;2023-03-15T07:30:18;26.63;;;9.43;;
142;SDS011;63667;49.046;8.468;2023-03-15T07:32:45;19.77;;;7.47;;
142;SDS011;63667;49.046;8.468;2023-03-15T07:35:12;16.67;;;5.70;;
142;SDS011;63667;49.046;8.468;2023-03-15T07:37:38;21.87;;;6.77;;
142;SDS011;63667;49.046;8.468;2023-03-15T07:40:05;13.67;;;5.60;;
142;SDS011;63667;49.046;8.468;2023-03-15T07:42:35;16.77;;;6.07;;
142;SDS011;63667;49.046;8.468;2023-03-15T07:45:02;9.37;;;5.03;;
142;SDS011;63667;49.046;8.468;2023-03-15T07:47:30;20.23;;;8.00;;
142;SDS011;63667;49.046;8.468;2023-03-15T07:49:56;18.73;;;7.60;;
142;SDS011;63667;49.046;8.468;2023-03-15T07:52:23;17.23;;;7.03;;
142;SDS011;63667;49.046;8.468;2023-03-15T07:54:49;22.63;;;6.63;;
142;SDS011;63667;49.046;8.468;2023-03-15T07:57:16;11.30;;;4.50;;
142;SDS011;63667;49.046;8.468;2023-03-15T07:59:42;30.37;;;9.57;;
142;SDS011;63667;49.046;8.468;2023-03-15T08:02:10;9.93;;;5.33;;
142;SDS011;63667;49.046;8.468;2023-03-15T08:04:38;9.43;;;4.83;;
142;SDS011;63667;49.046;8.468;2023-03-15T08:07:04;17.33;;;6.73;;
142;SDS011;63667;49.046;8.468;2023-03-15T08:09:30;16.13;;;5.37;;
142;SDS011;63667;49.046;8.468;2023-03-15T08:12:00;12.27;;;5.37;;
142;SDS011;63667;49.046;8.468;2023-03-15T08:14:26;15.00;;;5.87;;
142;SDS011;63667;49.046;8.468;2023-03-15T08:16:53;8.23;;;4.20;;
142;SDS011;63667;49.046;8.468;2023-03-15T08:19:19;15.30;;;5.63;;
142;SDS011;63667;49.046;8.468;2023-03-15T08:21:46;18.13;;;4.63;;
142;SDS011;63667;49.046;8.468;2023-03-15T08:24:13;9.90;;;4.67;;
142;SDS011;63667;49.046;8.468;2023-03-15T08:26:40;7.03;;;4.10;;
142;SDS011;63667;49.046;8.468;2023-03-15T08:29:07;12.23;;;4.37;;
142;SDS011;63667;49.046;8.468;2023-03-15T08:31:34;10.60;;;4.83;;
142;SDS011;63667;49.046;8.468;2023-03-15T08:34:00;5.93;;;3.70;;
142;SDS011;63667;49.046;8.468;2023-03-15T08:36:26;8.53;;;4.20;;
142;SDS011;63667;49.046;8.468;2023-03-15T08:38:53;6.93;;;4.30;;
142;SDS011;63667;49.046;8.468;2023-03-15T08:41:19;9.37;;;3.63;;
142;SDS011;63667;49.046;8.468;2023-03-15T08:43:46;9.77;;;3.73;;
142;SDS011;63667;49.046;8.468;2023-03-15T08:46:12;4.90;;;3.40;;
142;SDS011;63667;49.046;8.468;2023-03-15T08:48:38;7.30;;;3.63;;
142;SDS011;63667;49.046;8.468;2023-03-15T08:51:05;5.53;;;3.70;;
142;SDS011;63667;49.046;8.468;2023-03-15T08:53:33;5.53;;;3.33;;
142;SDS011;63667;49.046;8.468;2023-03-15T08:56:00;8.80;;;3.30;;
142;SDS011;63667;49.046;8.468;2023-03-15T08:58:26;11.87;;;3.30;;
142;SDS011;63667;49.046;8.468;2023-03-15T09:00:52;6.30;;;3.37;;
142;SDS011;63667;49.046;8.468;2023-03-15T09:03:18;9.60;;;3.30;;
142;SDS011;63667;49.046;8.468;2023-03-15T09:05:44;5.70;;;3.60;;
142;SDS011;63667;49.046;8.468;2023-03-15T09:08:11;6.30;;;2.87;;
142;SDS011;63667;49.046;8.468;2023-03-15T09:10:38;7.40;;;3.30;;
142;SDS011;63667;49.046;8.468;2023-03-15T09:13:05;13.60;;;3.63;;
142;SDS011;63667;49.046;8.468;2023-03-15T09:15:31;3.90;;;2.93;;
142;SDS011;63667;49.046;8.468;2023-03-15T09:17:57;3.83;;;2.70;;
142;SDS011;63667;49.046;8.468;2023-03-15T09:20:23;6.57;;;2.90;;
142;SDS011;63667;49.046;8.468;2023-03-15T09:22:56;7.30;;;2.87;;
142;SDS011;63667;49.046;8.468;2023-03-15T09:25:23;6.70;;;2.50;;
142;SDS011;63667;49.046;8.468;2023-03-15T09:27:50;7.50;;;3.37;;
142;SDS011;63667;49.046;8.468;2023-03-15T09:30:16;9.50;;;3.43;;
142;SDS011;63667;49.046;8.468;2023-03-15T09:32:43;9.10;;;2.70;;
142;SDS011;63667;49.046;8.468;2023-03-15T09:35:14;5.77;;;2.97;;
142;SDS011;63667;49.046;8.468;2023-03-15T09:37:42;8.63;;;3.40;;
142;SDS011;63667;49.046;8.468;2023-03-15T09:40:23;4.93;;;3.00;;
142;SDS011;63667;49.046;8.468;2023-03-15T09:50:46;9.43;;;2.73;;
142;SDS011;63667;49.046;8.468;2023-03-15T09:53:39;10.97;;;2.80;;
142;SDS011;63667;49.046;8.468;2023-03-15T09:56:30;7.03;;;3.23;;
142;SDS011;63667;49.046;8.468;2023-03-15T09:59:03;7.20;;;3.20;;
142;SDS011;63667;49.046;8.468;2023-03-15T10:01:31;4.70;;;2.90;;
142;SDS011;63667;49.046;8.468;2023-03-15T10:06:53;5.10;;;3.03;;
142;SDS011;63667;49.046;8.468;2023-03-15T10:09:23;6.50;;;3.13;;
142;SDS011;63667;49.046;8.468;2023-03-15T10:12:10;5.03;;;2.97;;
142;SDS011;63667;49.046;8.468;2023-03-15T10:17:30;4.17;;;2.87;;
142;SDS011;63667;49.046;8.468;2023-03-15T10:20:31;6.00;;;3.00;;
142;SDS011;63667;49.046;8.468;2023-03-15T10:25:35;9.03;;;3.10;;
142;SDS011;63667;49.046;8.468;2023-03-15T10:28:04;4.50;;;2.83;;
142;SDS011;63667;49.046;8.468;2023-03-15T10:30:47;7.00;;;3.00;;
142;SDS011;63667;49.046;8.468;2023-03-15T10:33:15;4.40;;;2.87;;
142;SDS011;63667;49.046;8.468;2023-03-15T10:36:02;6.23;;;2.83;;
142;SDS011;63667;49.046;8.468;2023-03-15T10:38:40;3.63;;;2.90;;
142;SDS011;63667;49.046;8.468;2023-03-15T10:41:07;7.30;;;2.83;;
142;SDS011;63667;49.046;8.468;2023-03-15T10:44:02;7.90;;;2.77;;
142;SDS011;63667;49.046;8.468;2023-03-15T10:46:30;3.07;;;2.47;;
142;SDS011;63667;49.046;8.468;2023-03-15T10:48:57;2.97;;;2.30;;
142;SDS011;63667;49.046;8.468;2023-03-15T10:51:29;8.53;;;2.47;;
142;SDS011;63667;49.046;8.468;2023-03-15T10:53:59;8.67;;;2.60;;
142;SDS011;63667;49.046;8.468;2023-03-15T10:56:36;5.67;;;2.93;;
142;SDS011;63667;49.046;8.468;2023-03-15T10:59:23;5.07;;;2.90;;
142;SDS011;63667;49.046;8.468;2023-03-15T11:01:52;8.37;;;2.87;;
142;SDS011;63667;49.046;8.468;2023-03-15T11:04:32;6.13;;;2.67;;
142;SDS011;63667;49.046;8.468;2023-03-15T11:06:59;2.77;;;2.50;;
142;SDS011;63667;49.046;8.468;2023-03-15T11:09:36;5.97;;;2.63;;
142;SDS011;63667;49.046;8.468;2023-03-15T11:12:29;6.93;;;3.27;;
142;SDS011;63667;49.046;8.468;2023-03-15T11:15:00;4.07;;;2.70;;
142;SDS011;63667;49.046;8.468;2023-03-15T11:17:31;8.50;;;4.10;;
142;SDS011;63667;49.046;8.468;2023-03-15T11:20:18;5.70;;;3.13;;
142;SDS011;63667;49.046;8.468;2023-03-15T11:22:55;5.90;;;3.13;;
142;SDS011;63667;49.046;8.468;2023-03-15T11:25:25;6.90;;;3.03;;
142;SDS011;63667;49.046;8.468;2023-03-15T11:27:58;7.27;;;3.50;;
142;SDS011;63667;49.046;8.468;2023-03-15T11:30:29;5.13;;;3.17;;
142;SDS011;63667;49.046;8.468;2023-03-15T11:33:00;6.27;;;3.43;;
142;SDS011;63667;49.046;8.468;2023-03-15T11:35:32;4.63;;;3.13;;
142;SDS011;63667;49.046;8.468;2023-03-15T11:41:05;4.33;;;3.33;;
142;SDS011;63667;49.046;8.468;2023-03-15T11:46:38;4.10;;;3.00;;
142;SDS011;63667;49.046;8.468;2023-03-15T11:49:11;5.00;;;2.90;;
142;SDS011;63667;49.046;8.468;2023-03-15T11:51:46;5.70;;;3.00;;
142;SDS011;63667;49.046;8.468;2023-03-15T11:54:16;10.43;;;3.53;;
142;SDS011;63667;49.046;8.468;2023-03-15T11:56:49;9.40;;;2.90;;
142;SDS011;63667;49.046;8.468;2023-03-15T11:59:17;4.57;;;2.40;;
142;SDS011;63667;49.046;8.468;2023-03-15T12:01:57;3.50;;;2.50;;
142;SDS011;63667;49.046;8.468;2023-03-15T12:17:48;4.53;;;2.87;;
142;SDS011;63667;49.046;8.468;2023-03-15T12:28:24;3.60;;;2.93;;
142;SDS011;63667;49.046;8.468;2023-03-15T12:30:59;3.87;;;3.00;;
142;SDS011;63667;49.046;8.468;2023-03-15T12:33:28;5.67;;;3.00;;
142;SDS011;63667;49.046;8.468;2023-03-15T12:36:00;5.20;;;2.77;;
142;SDS011;63667;49.046;8.468;2023-03-15T12:38:36;5.00;;;2.80;;
142;SDS011;63667;49.046;8.468;2023-03-15T12:41:32;5.30;;;3.00;;
142;SDS011;63667;49.046;8.468;2023-03-15T12:47:07;5.90;;;3.10;;
142;SDS011;63667;49.046;8.468;2023-03-15T12:49:36;4.40;;;3.20;;
142;SDS011;63667;49.046;8.468;2023-03-15T12:52:12;4.90;;;3.20;;
142;SDS011;63667;49.046;8.468;2023-03-15T12:55:00;5.43;;;2.70;;
142;SDS011;63667;49.046;8.468;2023-03-15T12:57:36;5.50;;;2.93;;
142;SDS011;63667;49.046;8.468;2023-03-15T13:00:13;3.47;;;2.83;;
142;SDS011;63667;49.046;8.468;2023-03-15T13:02:46;5.53;;;3.40;;
142;SDS011;63667;49.046;8.468;2023-03-15T13:13:24;7.27;;;3.60;;
142;SDS011;63667;49.046;8.468;2023-03-15T13:19:01;9.10;;;3.40;;
142;SDS011;63667;49.046;8.468;2023-03-15T13:21:40;7.30;;;4.20;;
142;SDS011;63667;49.046;8.468;2023-03-15T13:24:32;6.20;;;3.43;;
142;SDS011;63667;49.046;8.468;2023-03-15T13:36:00;3.83;;;2.93;;
142;SDS011;63667;49.046;8.468;2023-03-15T13:40:59;4.77;;;3.90;;
142;SDS011;63667;49.046;8.468;2023-03-15T13:43:29;6.70;;;3.80;;
142;SDS011;63667;49.046;8.468;2023-03-15T13:46:03;5.03;;;3.27;;
142;SDS011;63667;49.046;8.468;2023-03-15T13:48:34;4.67;;;4.03;;
142;SDS011;63667;49.046;8.468;2023-03-15T13:51:02;4.63;;;3.70;;
142;SDS011;63667;49.046;8.468;2023-03-15T13:53:33;6.83;;;4.00;;
142;SDS011;63667;49.046;8.468;2023-03-15T13:56:04;5.53;;;4.30;;
142;SDS011;63667;49.046;8.468;2023-03-15T13:58:32;6.00;;;4.30;;
142;SDS011;63667;49.046;8.468;2023-03-15T14:00:59;5.03;;;4.27;;
142;SDS011;63667;49.046;8.468;2023-03-15T14:03:29;4.53;;;4.10;;
142;SDS011;63667;49.046;8.468;2023-03-15T14:05:56;4.10;;;3.60;;
142;SDS011;63667;49.046;8.468;2023-03-15T14:08:27;5.53;;;3.90;;
142;SDS011;63667;49.046;8.468;2023-03-15T14:16:01;5.70;;;4.43;;
142;SDS011;63667;49.046;8.468;2023-03-15T14:18:37;6.37;;;4.40;;
142;SDS011;63667;49.046;8.468;2023-03-15T14:21:17;6.43;;;3.93;;
142;SDS011;63667;49.046;8.468;2023-03-15T14:23:53;5.40;;;4.20;;
142;SDS011;63667;49.046;8.468;2023-03-15T14:28:48;6.03;;;5.10;;
142;SDS011;63667;49.046;8.468;2023-03-15T14:31:21;5.57;;;4.20;;
142;SDS011;63667;49.046;8.468;2023-03-15T14:33:51;7.60;;;5.20;;
142;SDS011;63667;49.046;8.468;2023-03-15T14:36:30;7.47;;;5.17;;
142;SDS011;63667;49.046;8.468;2023-03-15T14:38:59;10.20;;;4.70;;
142;SDS011;63667;49.046;8.468;2023-03-15T14:43:52;7.00;;;4.00;;
142;SDS011;63667;49.046;8.468;2023-03-15T14:46:18;7.10;;;4.33;;
142;SDS011;63667;49.046;8.468;2023-03-15T14:48:45;7.83;;;4.60;;
142;SDS011;63667;49.046;8.468;2023-03-15T14:51:13;6.00;;;4.50;;
142;SDS011;63667;49.046;8.468;2023-03-15T14:53:41;5.60;;;4.20;;
142;SDS011;63667;49.046;8.468;2023-03-15T14:56:10;7.00;;;3.67;;
142;SDS011;63667;49.046;8.468;2023-03-15T14:58:37;10.03;;;3.67;;
142;SDS011;63667;49.046;8.468;2023-03-15T15:01:05;2.90;;;2.70;;
142;SDS011;63667;49.046;8.468;2023-03-15T15:03:36;3.00;;;2.83;;
142;SDS011;63667;49.046;8.468;2023-03-15T15:06:06;4.27;;;2.80;;
142;SDS011;63667;49.046;8.468;2023-03-15T15:08:35;2.87;;;2.67;;
142;SDS011;63667;49.046;8.468;2023-03-15T15:11:05;3.20;;;3.00;;
142;SDS011;63667;49.046;8.468;2023-03-15T15:13:33;3.37;;;2.67;;
142;SDS011;63667;49.046;8.468;2023-03-15T15:15:59;4.40;;;3.73;;
142;SDS011;63667;49.046;8.468;2023-03-15T15:18:27;4.73;;;3.00;;
142;SDS011;63667;49.046;8.468;2023-03-15T15:20:55;6.57;;;3.30;;
142;SDS011;63667;49.046;8.468;2023-03-15T15:23:28;3.53;;;3.17;;
142;SDS011;63667;49.046;8.468;2023-03-15T15:26:03;3.70;;;3.23;;
142;SDS011;63667;49.046;8.468;2023-03-15T15:28:30;4.90;;;3.10;;
142;SDS011;63667;49.046;8.468;2023-03-15T15:30:58;4.00;;;3.20;;
142;SDS011;63667;49.046;8.468;2023-03-15T15:33:25;3.10;;;2.60;;
142;SDS011;63667;49.046;8.468;2023-03-15T15:35:52;5.20;;;3.77;;
142;SDS011;63667;49.046;8.468;2023-03-15T15:38:20;4.90;;;3.37;;
142;SDS011;63667;49.046;8.468;2023-03-15T15:40:51;5.43;;;3.40;;
142;SDS011;63667;49.046;8.468;2023-03-15T15:43:17;3.90;;;3.13;;
142;SDS011;63667;49.046;8.468;2023-03-15T15:45:43;4.17;;;3.13;;
142;SDS011;63667;49.046;8.468;2023-03-15T15:48:09;5.40;;;3.17;;
142;SDS011;63667;49.046;8.468;2023-03-15T15:50:36;3.00;;;2.87;;
142;SDS011;63667;49.046;8.468;2023-03-15T15:53:03;3.00;;;2.80;;
142;SDS011;63667;49.046;8.468;2023-03-15T15:55:31;6.40;;;2.80;;
142;SDS011;63667;49.046;8.468;2023-03-15T15:57:59;4.97;;;3.30;;
142;SDS011;63667;49.046;8.468;2023-03-15T16:00:28;6.00;;;3.57;;
142;SDS011;63667;49.046;8.468;2023-03-15T16:02:55;3.93;;;3.40;;
142;SDS011;63667;49.046;8.468;2023-03-15T16:05:26;4.03;;;3.20;;
142;SDS011;63667;49.046;8.468;2023-03-15T16:07:55;4.53;;;3.27;;
142;SDS011;63667;49.046;8.468;2023-03-15T16:10:26;5.07;;;3.40;;
142;SDS011;63667;49.046;8.468;2023-03-15T16:12:59;7.60;;;3.20;;
142;SDS011;63667;49.046;8.468;2023-03-15T16:15:27;4.53;;;3.27;;
142;SDS011;63667;49.046;8.468;2023-03-15T16:17:53;4.50;;;3.70;;
142;SDS011;63667;49.046;8.468;2023-03-15T16:20:20;3.43;;;3.13;;
142;SDS011;63667;49.046;8.468;2023-03-15T16:22:48;4.33;;;4.00;;
142;SDS011;63667;49.046;8.468;2023-03-15T16:25:17;4.50;;;3.60;;
142;SDS011;63667;49.046;8.468;2023-03-15T16:27:51;5.90;;;3.37;;
142;SDS011;63667;49.046;8.468;2023-03-15T16:30:20;6.00;;;3.87;;
142;SDS011;63667;49.046;8.468;2023-03-15T16:32:48;3.87;;;3.67;;
142;SDS011;63667;49.046;8.468;2023-03-15T16:35:20;7.87;;;3.67;;
142;SDS011;63667;49.046;8.468;2023-03-15T16:37:48;4.73;;;3.50;;
142;SDS011;63667;49.046;8.468;2023-03-15T16:40:23;5.80;;;3.80;;
142;SDS011;63667;49.046;8.468;2023-03-15T16:42:55;5.27;;;3.70;;
142;SDS011;63667;49.046;8.468;2023-03-15T16:45:21;6.70;;;3.80;;
142;SDS011;63667;49.046;8.468;2023-03-15T16:47:48;5.60;;;4.30;;